Time;durP1;ratioP1;P1;durP2;ratioP2;P2;SDS_P1;SDS_P2;PMS_P1;PMS_P2;Temp;Humidity;BMP_temperature;BMP_pressure;BME280_temperature;BME280_humidity;BME280_pressure;Samples;Min_cycle;Max_cycle;Signal;HPM_P1;HPM_P2
2022/01/03 00:00:49;;;;;;;0.90;0.70;;;;;18.60;100015.00;;;;2078902;28;20225;-54
2022/01/03 00:01:49;;;;;;;1.30;1.00;;;;;18.60;100017.00;;;;2079734;28;20328;-54
2022/01/03 00:02:50;;;;;;;1.23;0.80;;;;;18.60;100007.00;;;;2086862;28;20216;-55
2022/01/03 00:03:50;;;;;;;1.17;0.90;;;;;18.60;100020.00;;;;2084186;28;20228;-54
2022/01/03 00:04:51;;;;;;;2.10;1.07;;;;;18.70;100024.00;;;;2088074;28;20462;-54
2022/01/03 00:05:51;;;;;;;1.00;0.80;;;;;18.60;100017.00;;;;2088058;28;20222;-55
2022/01/03 00:06:51;;;;;;;1.17;0.80;;;;;18.60;100018.00;;;;2087933;28;20217;-54
2022/01/03 00:07:52;;;;;;;1.00;0.80;;;;;18.60;100014.00;;;;2086005;28;20233;-54
2022/01/03 00:08:52;;;;;;;1.20;0.80;;;;;18.60;100026.00;;;;2086049;28;20235;-55
2022/01/03 00:09:52;;;;;;;1.10;0.80;;;;;18.60;100021.00;;;;2088097;28;20240;-54
2022/01/03 00:10:53;;;;;;;1.27;0.77;;;;;18.60;100008.00;;;;2087770;28;20242;-54
2022/01/03 00:11:53;;;;;;;0.93;0.73;;;;;18.60;100020.00;;;;2087869;28;20623;-55
2022/01/03 00:12:53;;;;;;;1.33;0.80;;;;;18.60;100024.00;;;;2087420;28;20217;-54
2022/01/03 00:13:54;;;;;;;1.20;0.83;;;;;18.60;100026.00;;;;2086561;28;20215;-55
2022/01/03 00:14:54;;;;;;;1.37;0.87;;;;;18.70;100017.00;;;;2087207;28;20228;-54
2022/01/03 00:15:55;;;;;;;0.97;0.87;;;;;18.70;100018.00;;;;2087351;28;20269;-54
2022/01/03 00:16:56;;;;;;;1.77;0.88;;;;;18.70;100021.00;;;;2087105;28;20209;-56
2022/01/03 00:17:56;;;;;;;2.10;0.90;;;;;18.70;100022.00;;;;2084874;28;20267;-55
2022/01/03 00:18:56;;;;;;;0.90;0.80;;;;;18.60;100008.00;;;;2083817;28;20223;-56
2022/01/03 00:19:57;;;;;;;1.60;0.80;;;;;18.60;100018.00;;;;2087879;28;20418;-55
2022/01/03 00:20:58;;;;;;;3.50;1.07;;;;;18.60;100021.00;;;;2086981;28;20243;-55
2022/01/03 00:21:59;;;;;;;2.25;1.17;;;;;18.60;100017.00;;;;2087249;28;20216;-55
2022/01/03 00:23:06;;;;;;;1.93;0.80;;;;;18.60;100027.00;;;;2084956;28;20212;-55
2022/01/03 00:24:09;;;;;;;1.50;0.90;;;;;18.60;100033.00;;;;2076569;28;20907;-55
2022/01/03 00:25:16;;;;;;;1.00;0.73;;;;;18.70;100038.00;;;;2086563;28;20270;-54
2022/01/03 00:26:25;;;;;;;1.10;0.80;;;;;18.70;100045.00;;;;2083895;28;20212;-55
2022/01/03 00:27:28;;;;;;;1.35;1.00;;;;;18.70;100024.00;;;;2087577;28;20213;-55
2022/01/03 00:28:28;;;;;;;1.13;0.70;;;;;18.60;100043.00;;;;2075201;28;20644;-56
2022/01/03 00:29:32;;;;;;;1.90;0.80;;;;;18.60;100030.00;;;;2078813;28;20224;-56
2022/01/03 00:30:37;;;;;;;1.75;0.98;;;;;18.60;100041.00;;;;2078251;28;20243;-55
2022/01/03 00:31:39;;;;;;;1.50;1.00;;;;;18.60;100037.00;;;;2079575;28;20221;-55
2022/01/03 00:32:42;;;;;;;1.02;0.80;;;;;18.60;100036.00;;;;2087282;28;20699;-54
2022/01/03 00:33:42;;;;;;;1.23;0.80;;;;;18.60;100044.00;;;;2079075;28;20248;-54
2022/01/03 00:34:44;;;;;;;1.53;0.80;;;;;18.60;100032.00;;;;2078557;28;20205;-55
2022/01/03 00:35:44;;;;;;;1.35;1.08;;;;;18.60;100041.00;;;;2084316;28;20217;-55
2022/01/03 00:36:46;;;;;;;1.20;0.93;;;;;18.60;100027.00;;;;2087063;28;20220;-54
2022/01/03 00:37:46;;;;;;;1.15;1.05;;;;;18.60;100038.00;;;;2087422;28;20224;-54
2022/01/03 00:38:47;;;;;;;1.07;0.93;;;;;18.60;100035.00;;;;2087644;28;20244;-55
2022/01/03 00:39:47;;;;;;;1.67;1.10;;;;;18.60;100038.00;;;;2087231;28;20656;-54
2022/01/03 00:40:48;;;;;;;1.00;0.83;;;;;18.40;100040.00;;;;2086822;28;20213;-55
2022/01/03 00:41:49;;;;;;;1.23;0.90;;;;;18.60;100036.00;;;;2087247;28;20255;-55
2022/01/03 00:42:49;;;;;;;1.38;1.00;;;;;18.60;100035.00;;;;2087323;28;20221;-54
2022/01/03 00:43:54;;;;;;;2.50;0.90;;;;;18.60;100037.00;;;;2087065;28;20217;-55
2022/01/03 00:44:54;;;;;;;1.20;0.82;;;;;18.60;100041.00;;;;2078765;28;20233;-55
2022/01/03 00:45:55;;;;;;;1.03;0.87;;;;;18.60;100027.00;;;;2087412;28;20209;-55
2022/01/03 00:46:55;;;;;;;1.07;0.97;;;;;18.60;100035.00;;;;2087326;28;20691;-55
2022/01/03 00:47:56;;;;;;;1.00;0.90;;;;;18.60;100039.00;;;;2087789;28;20463;-54
2022/01/03 00:48:56;;;;;;;2.00;0.83;;;;;18.60;100037.00;;;;2088419;28;20220;-54
2022/01/03 00:49:56;;;;;;;1.73;0.90;;;;;18.60;100028.00;;;;2088101;28;20209;-54
2022/01/03 00:50:57;;;;;;;1.50;1.00;;;;;18.60;100024.00;;;;2071297;28;20273;-55
2022/01/03 00:51:57;;;;;;;1.40;0.97;;;;;18.60;100026.00;;;;2071785;28;20218;-55
2022/01/03 00:52:58;;;;;;;1.13;0.80;;;;;18.60;100031.00;;;;2080539;28;20263;-54
2022/01/03 00:53:58;;;;;;;1.07;0.70;;;;;18.60;100037.00;;;;2082511;28;20229;-54
2022/01/03 00:54:58;;;;;;;1.00;0.80;;;;;18.60;100038.00;;;;2096756;28;20252;-54
2022/01/03 00:56:11;;;;;;;1.00;0.83;;;;;18.60;100034.00;;;;2085701;28;20273;-55
2022/01/03 00:57:19;;;;;;;1.20;1.00;;;;;18.60;100039.00;;;;2088668;28;20587;-55
2022/01/03 00:58:20;;;;;;;1.25;0.73;;;;;18.60;100052.00;;;;2084270;28;20228;-54
2022/01/03 00:59:31;;;;;;;1.57;1.10;;;;;18.60;100055.00;;;;2080900;28;21029;-55
2022/01/03 01:00:32;;;;;;;1.05;0.70;;;;;18.60;100063.00;;;;2077685;28;20768;-54
2022/01/03 01:01:38;;;;;;;1.45;1.10;;;;;18.60;100061.00;;;;2088308;28;20215;-54
2022/01/03 01:03:05;;;;;;;1.83;1.00;;;;;18.60;100047.00;;;;2088713;28;20225;-55
2022/01/03 01:04:07;;;;;;;1.20;0.80;;;;;18.60;100055.00;;;;2077508;28;20322;-56
2022/01/03 01:05:07;;;;;;;1.92;0.88;;;;;18.60;100051.00;;;;2088422;28;20216;-54
2022/01/03 01:06:08;;;;;;;1.40;1.00;;;;;18.60;100059.00;;;;2088746;28;20236;-55
2022/01/03 01:07:08;;;;;;;1.63;0.90;;;;;18.60;100038.00;;;;2088234;28;20273;-55
2022/01/03 01:08:08;;;;;;;1.40;1.03;;;;;18.60;100057.00;;;;2085873;28;20204;-55
2022/01/03 01:09:11;;;;;;;1.33;0.70;;;;;18.60;100045.00;;;;2088182;28;20335;-55
2022/01/03 01:10:11;;;;;;;1.73;0.95;;;;;18.60;100039.00;;;;2089305;28;20208;-55
2022/01/03 01:11:12;;;;;;;1.30;1.00;;;;;18.60;100040.00;;;;2080154;28;20727;-54
2022/01/03 01:12:12;;;;;;;1.30;0.90;;;;;18.60;100054.00;;;;2080403;28;20701;-54
2022/01/03 01:13:13;;;;;;;1.20;1.10;;;;;18.60;100060.00;;;;2085889;28;20216;-55
2022/01/03 01:14:14;;;;;;;1.33;0.70;;;;;18.60;100053.00;;;;2088604;28;20240;-55
2022/01/03 01:15:14;;;;;;;1.60;0.93;;;;;18.60;100050.00;;;;2088153;28;20216;-54
2022/01/03 01:16:16;;;;;;;1.20;0.73;;;;;18.60;100063.00;;;;2087684;28;20213;-54
2022/01/03 01:17:16;;;;;;;1.98;0.93;;;;;18.60;100054.00;;;;2079756;28;20208;-54
2022/01/03 01:18:16;;;;;;;1.67;0.90;;;;;18.60;100058.00;;;;2076559;28;20678;-54
2022/01/03 01:19:18;;;;;;;1.50;0.90;;;;;18.60;100049.00;;;;2076639;28;20648;-55
2022/01/03 01:20:20;;;;;;;1.45;0.90;;;;;18.60;100052.00;;;;2088353;28;20225;-55
2022/01/03 01:21:20;;;;;;;1.55;0.90;;;;;18.60;100061.00;;;;2088306;28;20300;-54
2022/01/03 01:22:21;;;;;;;1.17;0.90;;;;;18.60;100068.00;;;;2089182;28;20581;-54
2022/01/03 01:23:21;;;;;;;1.53;1.00;;;;;18.60;100056.00;;;;2086819;28;20232;-54
2022/01/03 01:24:23;;;;;;;1.30;0.93;;;;;18.60;100062.00;;;;2079756;28;20209;-55
2022/01/03 01:28:07;;;;;;;1.48;1.10;;;;;18.60;100067.00;;;;2062810;28;20211;-54
2022/01/03 01:29:07;;;;;;;1.80;0.82;;;;;18.60;100048.00;;;;2062927;28;20211;-54
2022/01/03 01:30:09;;;;;;;1.90;1.03;;;;;18.60;100047.00;;;;2063614;28;20230;-54
2022/01/03 01:31:11;;;;;;;1.40;0.90;;;;;18.60;100069.00;;;;2054551;28;20698;-55
2022/01/03 01:32:12;;;;;;;1.60;1.10;;;;;18.60;100063.00;;;;2055462;28;20226;-55
2022/01/03 01:33:16;;;;;;;1.55;0.80;;;;;18.60;100064.00;;;;2051287;28;20235;-55
2022/01/03 01:34:26;;;;;;;2.25;1.00;;;;;18.60;100068.00;;;;2080464;28;20572;-55
2022/01/03 01:35:50;;;;;;;2.05;1.30;;;;;18.60;100065.00;;;;2088417;28;20233;-54
2022/01/03 01:36:53;;;;;;;1.33;0.90;;;;;18.60;100076.00;;;;2086879;28;20763;-55
2022/01/03 01:37:54;;;;;;;2.05;0.80;;;;;18.60;100061.00;;;;2088575;28;20209;-54
2022/01/03 01:39:05;;;;;;;2.40;1.20;;;;;18.60;100073.00;;;;2087779;28;20616;-54
2022/01/03 01:40:06;;;;;;;2.78;1.05;;;;;18.60;100069.00;;;;2087740;28;20262;-54
2022/01/03 01:41:07;;;;;;;0.90;0.80;;;;;18.60;100074.00;;;;2088373;28;20314;-54
2022/01/03 01:42:07;;;;;;;2.65;1.35;;;;;18.60;100064.00;;;;2088819;28;21377;-54
2022/01/03 01:43:08;;;;;;;1.37;0.90;;;;;18.60;100076.00;;;;2079946;28;20247;-54
2022/01/03 01:44:09;;;;;;;1.70;1.13;;;;;18.60;100073.00;;;;2079756;28;20217;-54
2022/01/03 01:45:09;;;;;;;1.83;1.00;;;;;18.60;100073.00;;;;2080203;28;20305;-54
2022/01/03 01:46:17;;;;;;;0.93;0.80;;;;;18.60;100060.00;;;;2080035;28;20217;-54
2022/01/03 01:47:18;;;;;;;1.48;0.85;;;;;18.60;100069.00;;;;2084813;28;20252;-55
2022/01/03 01:48:18;;;;;;;1.30;0.67;;;;;18.60;100068.00;;;;2085571;28;20223;-55
2022/01/03 01:49:19;;;;;;;1.33;0.90;;;;;18.60;100064.00;;;;2071413;28;20229;-55
2022/01/03 01:50:20;;;;;;;1.48;0.80;;;;;18.60;100073.00;;;;2071468;28;20643;-55
2022/01/03 01:51:22;;;;;;;2.03;1.20;;;;;18.60;100079.00;;;;2076080;28;20218;-54
2022/01/03 01:52:24;;;;;;;2.10;1.23;;;;;18.60;100080.00;;;;2079935;28;20303;-54
2022/01/03 01:53:25;;;;;;;1.63;0.90;;;;;18.60;100076.00;;;;2088658;28;20718;-54
2022/01/03 01:54:30;;;;;;;1.33;0.88;;;;;18.60;100060.00;;;;2087618;28;20219;-55
2022/01/03 01:55:31;;;;;;;1.35;1.20;;;;;18.60;100076.00;;;;2076332;28;20217;-55
2022/01/03 01:56:53;;;;;;;1.50;0.80;;;;;18.60;100068.00;;;;2088228;28;20220;-55
2022/01/03 01:58:04;;;;;;;1.67;0.75;;;;;18.60;100068.00;;;;2085977;28;20474;-55
2022/01/03 01:59:13;;;;;;;1.52;0.93;;;;;18.60;100078.00;;;;2087995;28;20718;-55
2022/01/03 02:00:14;;;;;;;2.08;1.30;;;;;18.60;100075.00;;;;2088442;28;20221;-54
2022/01/03 02:01:14;;;;;;;2.28;1.20;;;;;18.60;100080.00;;;;2088217;28;20343;-54
2022/01/03 02:02:19;;;;;;;2.40;1.10;;;;;18.60;100078.00;;;;2079512;28;20296;-56
2022/01/03 02:03:58;;;;;;;1.92;1.00;;;;;18.60;100080.00;;;;2079083;28;20205;-54
2022/01/03 02:05:01;;;;;;;1.48;0.80;;;;;18.60;100076.00;;;;2084534;28;20212;-55
2022/01/03 02:06:25;;;;;;;1.90;1.10;;;;;18.60;100085.00;;;;2088358;28;20986;-54
2022/01/03 02:07:42;;;;;;;1.58;0.80;;;;;18.60;100088.00;;;;2086385;28;20583;-54
2022/01/03 02:09:02;;;;;;;1.40;0.98;;;;;18.60;100086.00;;;;2084904;28;20213;-54
2022/01/03 02:10:04;;;;;;;2.08;1.10;;;;;18.60;100080.00;;;;2072839;28;20233;-54
2022/01/03 02:11:39;;;;;;;1.50;0.90;;;;;18.60;100088.00;;;;2079134;28;20292;-55
2022/01/03 02:12:41;;;;;;;1.52;0.88;;;;;18.60;100088.00;;;;2072558;28;20222;-54
2022/01/03 02:13:41;;;;;;;1.45;1.10;;;;;18.60;100079.00;;;;2081575;28;20633;-55
2022/01/03 02:14:42;;;;;;;2.00;1.00;;;;;18.60;100084.00;;;;2088436;28;20247;-54
2022/01/03 02:15:46;;;;;;;1.47;0.90;;;;;18.60;100082.00;;;;2088080;28;20217;-54
2022/01/03 02:16:47;;;;;;;1.52;0.73;;;;;18.60;100084.00;;;;2088305;28;20517;-54
2022/01/03 02:17:48;;;;;;;1.63;1.10;;;;;18.60;100087.00;;;;2088070;28;20213;-55
2022/01/03 02:18:48;;;;;;;1.55;0.90;;;;;18.60;100085.00;;;;2088246;28;20209;-54
2022/01/03 02:20:08;;;;;;;2.40;1.00;;;;;18.60;100077.00;;;;2088379;28;20211;-54
2022/01/03 02:21:08;;;;;;;1.90;0.98;;;;;18.60;100092.00;;;;2087961;28;20325;-54
2022/01/03 02:22:10;;;;;;;1.13;0.83;;;;;18.60;100088.00;;;;2087938;28;20939;-55
2022/01/03 02:23:11;;;;;;;1.60;0.88;;;;;18.60;100084.00;;;;2088267;28;20223;-54
2022/01/03 02:24:11;;;;;;;1.63;0.97;;;;;18.60;100095.00;;;;2087346;28;20599;-54
2022/01/03 02:25:12;;;;;;;2.20;1.30;;;;;18.60;100082.00;;;;2088021;28;20205;-54
2022/01/03 02:26:13;;;;;;;2.53;0.82;;;;;18.60;100083.00;;;;2088338;28;20216;-54
2022/01/03 02:27:13;;;;;;;1.40;0.90;;;;;18.60;100083.00;;;;2088390;28;20231;-54
2022/01/03 02:28:13;;;;;;;1.60;1.00;;;;;18.60;100079.00;;;;2087956;28;20220;-54
2022/01/03 02:29:14;;;;;;;2.27;1.10;;;;;18.60;100090.00;;;;2076386;28;20262;-53
2022/01/03 02:30:17;;;;;;;1.80;0.70;;;;;18.60;100088.00;;;;2088199;28;20499;-54
2022/01/03 02:31:18;;;;;;;1.30;0.70;;;;;18.60;100094.00;;;;2088085;28;20282;-54
2022/01/03 02:32:18;;;;;;;1.63;1.00;;;;;18.60;100084.00;;;;2088299;28;20310;-54
2022/01/03 02:33:19;;;;;;;1.30;0.97;;;;;18.60;100089.00;;;;2086915;28;20212;-55
2022/01/03 02:34:19;;;;;;;1.90;1.00;;;;;18.60;100102.00;;;;2088197;28;20226;-55
2022/01/03 02:35:19;;;;;;;2.17;1.00;;;;;18.60;100091.00;;;;2085881;28;20658;-54
2022/01/03 02:36:20;;;;;;;1.57;1.10;;;;;18.60;100104.00;;;;2087271;28;20250;-54
2022/01/03 02:37:21;;;;;;;2.10;1.00;;;;;18.60;100109.00;;;;2088168;28;20219;-54
2022/01/03 02:38:22;;;;;;;1.33;0.85;;;;;18.60;100095.00;;;;2087517;28;20274;-54
2022/01/03 02:39:22;;;;;;;1.73;1.20;;;;;18.60;100090.00;;;;2087700;28;20676;-54
2022/01/03 02:40:22;;;;;;;1.97;1.07;;;;;18.60;100090.00;;;;2087720;28;20789;-54
2022/01/03 02:41:23;;;;;;;1.47;0.87;;;;;18.60;100094.00;;;;2087906;28;20700;-54
2022/01/03 02:42:25;;;;;;;2.13;1.50;;;;;18.60;100089.00;;;;2087953;28;20749;-57
2022/01/03 02:43:25;;;;;;;1.80;0.77;;;;;18.60;100079.00;;;;2085120;28;20321;-55
2022/01/03 02:44:26;;;;;;;1.60;1.03;;;;;18.60;100093.00;;;;2088258;28;20258;-55
2022/01/03 02:45:27;;;;;;;1.53;0.97;;;;;18.60;100081.00;;;;2088020;28;20244;-54
2022/01/03 02:46:27;;;;;;;2.20;1.37;;;;;18.60;100090.00;;;;2087211;28;20224;-55
2022/01/03 02:47:27;;;;;;;1.20;0.90;;;;;18.60;100090.00;;;;2087293;28;20232;-55
2022/01/03 02:48:28;;;;;;;1.87;1.10;;;;;18.60;100084.00;;;;2085171;28;20220;-55
2022/01/03 02:49:28;;;;;;;2.50;1.03;;;;;18.60;100085.00;;;;2088105;28;20216;-54
2022/01/03 02:50:31;;;;;;;2.20;1.07;;;;;18.60;100091.00;;;;2087793;28;20275;-55
2022/01/03 02:51:32;;;;;;;2.28;1.20;;;;;18.60;100074.00;;;;2088011;28;20696;-55
2022/01/03 02:52:35;;;;;;;1.30;0.90;;;;;18.60;100079.00;;;;2088030;28;20247;-54
2022/01/03 02:53:36;;;;;;;1.85;1.13;;;;;18.60;100077.00;;;;2082383;28;20443;-54
2022/01/03 02:54:37;;;;;;;1.58;0.98;;;;;18.60;100080.00;;;;2087450;28;20236;-54
2022/01/03 02:55:37;;;;;;;1.70;0.90;;;;;18.60;100080.00;;;;2087383;28;20709;-54
2022/01/03 02:56:39;;;;;;;1.87;0.77;;;;;18.60;100086.00;;;;2087690;28;20674;-54
2022/01/03 02:57:41;;;;;;;1.85;1.08;;;;;18.60;100095.00;;;;2083743;28;20236;-54
2022/01/03 02:58:42;;;;;;;2.33;1.00;;;;;18.60;100082.00;;;;2082710;28;20217;-54
2022/01/03 02:59:42;;;;;;;1.50;0.90;;;;;18.60;100083.00;;;;2078550;28;20700;-54
2022/01/03 03:00:49;;;;;;;1.30;0.80;;;;;18.60;100089.00;;;;2088421;28;20738;-55
2022/01/03 03:01:50;;;;;;;2.05;1.00;;;;;18.60;100084.00;;;;2089802;28;20213;-54
2022/01/03 03:02:50;;;;;;;1.80;1.13;;;;;18.60;100090.00;;;;2087210;28;20213;-54
2022/01/03 03:03:50;;;;;;;2.33;1.10;;;;;18.60;100095.00;;;;2075426;28;20224;-54
2022/01/03 03:04:52;;;;;;;1.30;0.80;;;;;18.50;100100.00;;;;2095371;28;20208;-54
2022/01/03 03:05:52;;;;;;;1.20;0.77;;;;;18.50;100099.00;;;;2092580;28;20209;-54
2022/01/03 03:06:53;;;;;;;1.90;1.00;;;;;18.60;100097.00;;;;2087782;28;20572;-54
2022/01/03 03:07:53;;;;;;;1.50;0.90;;;;;18.60;100099.00;;;;2087946;28;20216;-54
2022/01/03 03:08:53;;;;;;;1.97;0.90;;;;;18.60;100103.00;;;;2080497;28;20220;-54
2022/01/03 03:09:54;;;;;;;1.67;0.80;;;;;18.60;100099.00;;;;2090216;28;20239;-54
2022/01/03 03:10:54;;;;;;;1.47;0.80;;;;;18.60;100101.00;;;;2089985;28;20213;-54
2022/01/03 03:11:55;;;;;;;2.33;1.13;;;;;18.60;100103.00;;;;2088400;28;20216;-54
2022/01/03 03:12:55;;;;;;;1.33;0.73;;;;;18.60;100108.00;;;;2088124;28;20243;-55
2022/01/03 03:13:55;;;;;;;1.50;0.90;;;;;18.60;100099.00;;;;2083145;28;20622;-54
2022/01/03 03:14:56;;;;;;;1.73;1.00;;;;;18.60;100102.00;;;;2088206;28;20233;-53
2022/01/03 03:15:56;;;;;;;2.20;1.10;;;;;18.60;100117.00;;;;2088177;28;20216;-55
2022/01/03 03:16:56;;;;;;;2.00;0.90;;;;;18.60;100101.00;;;;2088317;28;20618;-54
2022/01/03 03:17:57;;;;;;;1.83;1.13;;;;;18.60;100107.00;;;;2088337;28;20769;-54
2022/01/03 03:18:57;;;;;;;1.30;0.80;;;;;18.60;100117.00;;;;2088365;28;20672;-54
2022/01/03 03:20:00;;;;;;;1.67;0.93;;;;;18.60;100063.00;;;;2088403;28;20216;-54
2022/01/03 03:21:01;;;;;;;2.92;1.20;;;;;18.60;100104.00;;;;2087743;28;20201;-55
2022/01/03 03:22:01;;;;;;;1.70;1.10;;;;;18.60;100103.00;;;;2088271;28;20231;-54
2022/01/03 03:23:02;;;;;;;1.53;0.80;;;;;18.60;100105.00;;;;2088219;28;20215;-55
2022/01/03 03:24:02;;;;;;;1.67;0.80;;;;;18.60;100102.00;;;;2088295;28;20213;-55
2022/01/03 03:25:06;;;;;;;1.60;0.90;;;;;18.60;100111.00;;;;2088109;28;20208;-55
2022/01/03 03:26:06;;;;;;;2.67;1.30;;;;;18.60;100102.00;;;;2088077;28;20288;-55
2022/01/03 03:27:10;;;;;;;1.30;0.83;;;;;18.60;100108.00;;;;2088161;28;20204;-55
2022/01/03 03:28:12;;;;;;;2.40;1.27;;;;;18.60;100112.00;;;;2088235;28;20724;-54
2022/01/03 03:29:12;;;;;;;3.60;1.55;;;;;18.50;100109.00;;;;2084701;28;20295;-54
2022/01/03 03:30:21;;;;;;;1.50;0.87;;;;;18.60;100111.00;;;;2088014;28;20209;-54
2022/01/03 03:31:21;;;;;;;2.03;0.90;;;;;18.60;100109.00;;;;2088161;28;20454;-54
2022/01/03 03:32:21;;;;;;;1.20;0.70;;;;;18.60;100118.00;;;;2088356;28;20220;-55
2022/01/03 03:33:22;;;;;;;2.17;1.07;;;;;18.60;100103.00;;;;2088262;28;20224;-54
2022/01/03 03:34:23;;;;;;;2.00;1.10;;;;;18.60;100110.00;;;;2088176;28;20213;-54
2022/01/03 03:35:23;;;;;;;2.07;1.00;;;;;18.60;100106.00;;;;2088192;28;20217;-54
2022/01/03 03:36:23;;;;;;;1.67;0.90;;;;;18.60;100112.00;;;;2084488;28;20298;-55
2022/01/03 03:37:24;;;;;;;2.10;1.03;;;;;18.60;100106.00;;;;2087843;28;20736;-54
2022/01/03 03:38:25;;;;;;;2.57;1.10;;;;;18.60;100114.00;;;;2088152;28;20582;-54
2022/01/03 03:39:25;;;;;;;2.67;0.95;;;;;18.60;100094.00;;;;2088106;28;20224;-54
2022/01/03 03:40:26;;;;;;;2.90;1.17;;;;;18.50;100112.00;;;;2087835;28;20212;-54
2022/01/03 03:41:26;;;;;;;2.30;1.00;;;;;18.60;100114.00;;;;2087357;28;20209;-54
2022/01/03 03:42:27;;;;;;;1.97;1.00;;;;;18.60;100108.00;;;;2087481;28;20212;-54
2022/01/03 03:43:30;;;;;;;1.90;1.10;;;;;18.60;100112.00;;;;2088286;28;20451;-54
2022/01/03 03:44:30;;;;;;;1.42;0.80;;;;;18.50;100104.00;;;;2083826;28;20291;-54
2022/01/03 03:45:32;;;;;;;3.10;1.00;;;;;18.60;100101.00;;;;2087470;28;20217;-55
2022/01/03 03:46:32;;;;;;;1.85;1.00;;;;;18.50;100112.00;;;;2088108;28;20221;-53
2022/01/03 03:47:32;;;;;;;1.93;1.00;;;;;18.60;100107.00;;;;2088111;28;20572;-54
2022/01/03 03:48:34;;;;;;;1.83;1.10;;;;;18.60;100103.00;;;;2088125;28;20620;-54
2022/01/03 03:49:34;;;;;;;2.05;1.00;;;;;18.60;100111.00;;;;2087201;28;20221;-55
2022/01/03 03:50:35;;;;;;;1.37;0.83;;;;;18.60;100107.00;;;;2087182;28;20256;-55
2022/01/03 03:51:38;;;;;;;2.80;1.17;;;;;18.60;100107.00;;;;2088214;28;20263;-55
2022/01/03 03:52:38;;;;;;;1.70;0.70;;;;;18.60;100108.00;;;;2084707;28;20213;-55
2022/01/03 03:53:38;;;;;;;1.90;1.10;;;;;18.60;100116.00;;;;2088164;28;20221;-55
2022/01/03 03:54:39;;;;;;;1.60;0.90;;;;;18.50;100115.00;;;;2087277;28;20235;-54
2022/01/03 03:55:39;;;;;;;1.53;0.97;;;;;18.60;100111.00;;;;2087341;28;20592;-55
2022/01/03 03:56:40;;;;;;;1.93;1.00;;;;;18.60;100110.00;;;;2084127;28;20232;-55
2022/01/03 03:57:40;;;;;;;1.70;0.90;;;;;18.50;100121.00;;;;2088194;28;20209;-55
2022/01/03 03:58:40;;;;;;;1.67;0.90;;;;;18.60;100117.00;;;;2088030;28;20220;-54
2022/01/03 03:59:41;;;;;;;3.27;1.10;;;;;18.60;100113.00;;;;2087306;28;20217;-55
2022/01/03 04:00:41;;;;;;;1.80;0.97;;;;;18.50;100113.00;;;;2087813;28;20247;-55
2022/01/03 04:01:41;;;;;;;1.53;0.73;;;;;18.50;100111.00;;;;2088059;28;20209;-55
2022/01/03 04:02:42;;;;;;;1.30;0.80;;;;;18.60;100110.00;;;;2088031;28;20209;-54
2022/01/03 04:03:42;;;;;;;2.20;0.90;;;;;18.60;100116.00;;;;2088099;28;20209;-55
2022/01/03 04:04:42;;;;;;;1.60;1.03;;;;;18.60;100116.00;;;;2088009;28;20209;-54
2022/01/03 04:05:43;;;;;;;1.43;0.80;;;;;18.60;100124.00;;;;2088069;28;20209;-54
2022/01/03 04:06:43;;;;;;;2.60;1.00;;;;;18.50;100123.00;;;;2087985;28;20288;-55
2022/01/03 04:07:43;;;;;;;1.77;1.00;;;;;18.50;100122.00;;;;2088066;28;20212;-55
2022/01/03 04:08:45;;;;;;;2.07;0.93;;;;;18.60;100118.00;;;;2086853;28;20208;-54
2022/01/03 04:09:46;;;;;;;1.17;0.70;;;;;18.50;100114.00;;;;2087922;28;20258;-54
2022/01/03 04:10:46;;;;;;;1.37;1.00;;;;;18.60;100117.00;;;;2087759;28;20235;-54
2022/01/03 04:11:47;;;;;;;1.97;1.00;;;;;18.60;100118.00;;;;2087973;28;20219;-55
2022/01/03 04:12:48;;;;;;;1.77;0.90;;;;;18.50;100120.00;;;;2088003;28;20217;-55
2022/01/03 04:13:48;;;;;;;1.57;0.83;;;;;18.60;100116.00;;;;2088030;28;20249;-54
2022/01/03 04:14:49;;;;;;;1.57;0.90;;;;;18.60;100118.00;;;;2087120;28;20307;-54
2022/01/03 04:15:49;;;;;;;3.20;1.30;;;;;18.60;100111.00;;;;2087446;28;20264;-54
2022/01/03 04:16:49;;;;;;;1.30;0.70;;;;;18.60;100114.00;;;;2086078;28;20224;-55
2022/01/03 04:17:50;;;;;;;1.40;0.90;;;;;18.60;100119.00;;;;2087862;28;20236;-54
2022/01/03 04:18:50;;;;;;;2.23;0.80;;;;;18.60;100116.00;;;;2088010;28;20228;-54
2022/01/03 04:19:50;;;;;;;1.67;0.93;;;;;18.50;100118.00;;;;2087980;28;20213;-54
2022/01/03 04:20:51;;;;;;;1.47;0.80;;;;;18.50;100113.00;;;;2087766;28;20216;-54
2022/01/03 04:21:51;;;;;;;1.70;0.60;;;;;18.60;100113.00;;;;2088523;28;20243;-54
2022/01/03 04:22:51;;;;;;;1.30;0.90;;;;;18.50;100116.00;;;;2088552;28;20219;-54
2022/01/03 04:23:52;;;;;;;1.30;0.80;;;;;18.50;100117.00;;;;2088828;28;20209;-55
2022/01/03 04:24:52;;;;;;;2.53;0.90;;;;;18.50;100117.00;;;;2089625;28;20219;-54
2022/01/03 04:25:53;;;;;;;1.83;1.23;;;;;18.50;100117.00;;;;2088908;28;20208;-54
2022/01/03 04:26:53;;;;;;;2.07;1.10;;;;;18.50;100108.00;;;;2089002;28;20223;-54
2022/01/03 04:27:53;;;;;;;1.50;0.80;;;;;18.50;100120.00;;;;2089567;28;20216;-54
2022/01/03 04:28:54;;;;;;;1.87;1.00;;;;;18.50;100118.00;;;;2089229;28;20208;-55
2022/01/03 04:29:54;;;;;;;3.07;0.93;;;;;18.50;100110.00;;;;2088171;28;20585;-54
2022/01/03 04:30:54;;;;;;;2.73;1.00;;;;;18.60;100115.00;;;;2089493;28;20688;-55
2022/01/03 04:31:55;;;;;;;1.83;1.00;;;;;18.50;100116.00;;;;2089672;28;20212;-55
2022/01/03 04:32:55;;;;;;;1.77;1.10;;;;;18.50;100107.00;;;;2089622;28;20259;-54
2022/01/03 04:33:56;;;;;;;1.63;0.70;;;;;18.50;100102.00;;;;2089714;28;20209;-54
2022/01/03 04:34:56;;;;;;;2.08;0.95;;;;;18.50;100096.00;;;;2089437;28;20556;-54
2022/01/03 04:35:57;;;;;;;1.93;0.97;;;;;18.60;100100.00;;;;2089560;28;20223;-55
2022/01/03 04:36:57;;;;;;;1.70;0.77;;;;;18.60;100108.00;;;;2089610;28;20569;-55
2022/01/03 04:37:57;;;;;;;2.30;1.23;;;;;18.50;100113.00;;;;2089547;28;20242;-54
2022/01/03 04:38:58;;;;;;;2.07;1.10;;;;;18.50;100098.00;;;;2089393;28;20228;-55
2022/01/03 04:39:58;;;;;;;2.03;1.00;;;;;18.50;100114.00;;;;2089450;28;20216;-54
2022/01/03 04:40:59;;;;;;;1.83;1.27;;;;;18.50;100100.00;;;;2089328;28;20219;-54
2022/01/03 04:42:00;;;;;;;2.10;1.10;;;;;18.50;100098.00;;;;2089663;28;20220;-54
2022/01/03 04:43:00;;;;;;;2.13;0.93;;;;;18.50;100099.00;;;;2089402;28;20294;-54
2022/01/03 04:44:01;;;;;;;1.60;0.87;;;;;18.50;100100.00;;;;2089336;28;20212;-55
2022/01/03 04:45:02;;;;;;;2.27;1.00;;;;;18.50;100103.00;;;;2089472;28;20219;-54
2022/01/03 04:46:02;;;;;;;1.77;0.90;;;;;18.50;100097.00;;;;2089497;28;20243;-55
2022/01/03 04:47:03;;;;;;;1.47;0.80;;;;;18.50;100103.00;;;;2088492;28;20621;-54
2022/01/03 04:48:03;;;;;;;2.27;1.20;;;;;18.50;100099.00;;;;2088623;28;20696;-54
2022/01/03 04:49:05;;;;;;;1.23;0.70;;;;;18.50;100106.00;;;;2089377;28;20805;-54
2022/01/03 04:50:05;;;;;;;1.80;0.80;;;;;18.50;100100.00;;;;2088752;28;20327;-54
2022/01/03 04:51:05;;;;;;;2.07;0.90;;;;;18.50;100097.00;;;;2088559;28;20262;-54
2022/01/03 04:52:06;;;;;;;2.00;1.07;;;;;18.50;100108.00;;;;2089092;28;20213;-54
2022/01/03 04:53:06;;;;;;;1.87;1.00;;;;;18.50;100109.00;;;;2089546;28;20216;-54
2022/01/03 04:54:06;;;;;;;1.90;0.90;;;;;18.50;100105.00;;;;2089392;28;20247;-55
2022/01/03 04:55:07;;;;;;;2.00;1.10;;;;;18.50;100092.00;;;;2089231;28;20216;-54
2022/01/03 04:56:09;;;;;;;1.90;1.10;;;;;18.60;100102.00;;;;2084787;28;20212;-55
2022/01/03 04:57:09;;;;;;;1.42;0.85;;;;;18.50;100102.00;;;;2088699;28;20220;-54
2022/01/03 04:58:10;;;;;;;1.50;0.97;;;;;18.50;100098.00;;;;2089436;28;20216;-54
2022/01/03 04:59:11;;;;;;;3.13;1.30;;;;;18.50;100091.00;;;;2089075;28;20232;-54
2022/01/03 05:00:11;;;;;;;2.00;0.97;;;;;18.50;100095.00;;;;2089214;28;20447;-54
2022/01/03 05:01:12;;;;;;;1.70;1.00;;;;;18.50;100099.00;;;;2089106;28;20213;-55
2022/01/03 05:02:12;;;;;;;1.83;0.87;;;;;18.60;100099.00;;;;2088590;28;21008;-54
2022/01/03 05:03:12;;;;;;;1.83;0.90;;;;;18.50;100095.00;;;;2088681;28;20217;-54
2022/01/03 05:04:13;;;;;;;2.17;0.80;;;;;18.50;100103.00;;;;2089410;28;20290;-54
2022/01/03 05:05:13;;;;;;;2.30;0.90;;;;;18.60;100106.00;;;;2089335;28;20244;-55
2022/01/03 05:06:13;;;;;;;1.80;0.80;;;;;18.50;100107.00;;;;2089360;28;20229;-54
2022/01/03 05:07:14;;;;;;;1.87;1.00;;;;;18.50;100099.00;;;;2089478;28;20240;-54
2022/01/03 05:08:14;;;;;;;3.03;0.77;;;;;18.50;100085.00;;;;2089307;28;20283;-54
2022/01/03 05:09:15;;;;;;;2.47;1.00;;;;;18.50;100096.00;;;;2089295;28;20212;-55